Time,TemperatureF,DewpointF,PressureIn,WindDirection,WindDirectionDegrees,WindSpeedMPH,WindSpeedGustMPH,Humidity,HourlyPrecipIn,Conditions,Clouds,dailyrainin,SoftwareType,DateUTC
2013-02-01 00:00:00,39.5,26.0,30.28,NNE,22,0.0,0.0,58,0.00,,,0.00,VWS V14.01,2013-02-01 06:00:00,
2013-02-01 00:05:00,39.1,26.4,30.29,NNE,22,0.0,0.0,60,0.00,,,0.00,VWS V14.01,2013-02-01 06:05:00,
2013-02-01 00:10:00,38.8,26.1,30.29,NNE,22,0.0,0.0,60,0.00,,,0.00,VWS V14.01,2013-02-01 06:10:00,
2013-02-01 00:15:00,38.5,27.0,30.28,NNE,22,0.0,0.0,63,0.00,,,0.00,VWS V14.01,2013-02-01 06:15:00,
2013-02-01 00:20:00,38.3,27.2,30.28,NNE,22,0.0,0.0,64,0.00,,,0.00,VWS V14.01,2013-02-01 06:20:00,
2013-02-01 00:25:00,38.0,26.9,30.28,NNE,22,0.0,0.0,64,0.00,,,0.00,VWS V14.01,2013-02-01 06:25:00,
2013-02-01 00:30:00,37.8,27.8,30.28,NNE,22,0.0,0.0,67,0.00,,,0.00,VWS V14.01,2013-02-01 06:30:00,
2013-02-01 00:35:00,38.4,27.7,30.28,NNE,22,0.0,0.0,65,0.00,,,0.00,VWS V14.01,2013-02-01 06:35:00,
2013-02-01 00:40:00,38.1,26.2,30.28,NNE,22,0.0,0.0,62,0.00,,,0.00,VWS V14.01,2013-02-01 06:40:00,
2013-02-01 00:45:00,37.7,26.3,30.28,NNE,22,0.0,0.0,63,0.00,,,0.00,VWS V14.01,2013-02-01 06:45:00,
2013-02-01 00:50:00,37.6,25.8,30.28,NNE,22,0.0,0.0,62,0.00,,,0.00,VWS V14.01,2013-02-01 06:50:00,
2013-02-01 00:55:00,37.3,26.6,30.28,NNE,22,0.0,0.0,65,0.00,,,0.00,VWS V14.01,2013-02-01 06:55:00,
2013-02-01 01:00:00,37.3,27.7,30.28,NNE,22,0.0,1.0,68,0.00,,,0.00,VWS V14.01,2013-02-01 07:00:00,
2013-02-01 01:05:00,37.2,27.3,30.28,NNE,22,0.0,0.0,67,0.00,,,0.00,VWS V14.01,2013-02-01 07:05:00,
2013-02-01 01:10:00,36.8,26.1,30.28,NNE,22,0.0,0.0,65,0.00,,,0.00,VWS V14.01,2013-02-01 07:10:00,
2013-02-01 01:15:00,36.7,26.8,30.28,NNE,22,0.0,0.0,67,0.00,,,0.00,VWS V14.01,2013-02-01 07:15:00,
2013-02-01 01:20:00,36.5,27.0,30.28,NNE,22,0.0,0.0,68,0.00,,,0.00,VWS V14.01,2013-02-01 07:20:00,
2013-02-01 01:25:00,36.5,27.0,30.29,SE,135,1.0,8.0,68,0.00,,,0.00,VWS V14.01,2013-02-01 07:25:00,
2013-02-01 01:30:00,36.9,27.7,30.30,SE,135,2.0,7.0,69,0.00,,,0.00,VWS V14.01,2013-02-01 07:30:00,
2013-02-01 01:35:00,37.8,27.8,30.30,SE,135,0.0,0.0,67,0.00,,,0.00,VWS V14.01,2013-02-01 07:35:00,
2013-02-01 01:40:00,39.0,27.9,30.30,NE,45,0.0,1.0,64,0.00,,,0.00,VWS V14.01,2013-02-01 07:40:00,
2013-02-01 01:45:00,39.1,27.6,30.30,NE,45,0.0,0.0,63,0.00,,,0.00,VWS V14.01,2013-02-01 07:45:00,
2013-02-01 01:50:00,39.0,27.5,30.30,NE,45,0.0,0.0,63,0.00,,,0.00,VWS V14.01,2013-02-01 07:50:00,
2013-02-01 01:55:00,38.9,28.1,30.30,NE,45,0.0,0.0,65,0.00,,,0.00,VWS V14.01,2013-02-01 07:55:00,
2013-02-01 02:00:00,38.9,27.8,30.30,NE,45,0.0,0.0,64,0.00,,,0.00,VWS V14.01,2013-02-01 08:00:00,
2013-02-01 02:05:00,39.4,27.9,30.29,NNW,338,2.0,4.0,63,0.00,,,0.00,VWS V14.01,2013-02-01 08:05:00,
2013-02-01 02:10:00,39.6,28.1,30.29,SSE,158,2.0,4.0,63,0.00,,,0.00,VWS V14.01,2013-02-01 08:10:00,
2013-02-01 02:15:00,39.4,28.2,30.30,SSE,158,0.0,1.0,64,0.00,,,0.00,VWS V14.01,2013-02-01 08:15:00,
2013-02-01 02:20:00,38.8,29.2,30.30,SSE,158,0.0,1.0,68,0.00,,,0.00,VWS V14.01,2013-02-01 08:20:00,
2013-02-01 02:25:00,38.4,28.4,30.30,NNW,338,1.0,2.0,67,0.00,,,0.00,VWS V14.01,2013-02-01 08:25:00,
2013-02-01 02:30:00,39.0,28.6,30.29,NNW,338,0.0,1.0,66,0.00,,,0.00,VWS V14.01,2013-02-01 08:30:00,
2013-02-01 02:35:00,39.3,27.8,30.29,NNW,338,0.0,1.0,63,0.00,,,0.00,VWS V14.01,2013-02-01 08:35:00,
2013-02-01 02:40:00,40.1,27.4,30.29,NNW,338,0.0,0.0,60,0.00,,,0.00,VWS V14.01,2013-02-01 08:40:00,
2013-02-01 02:45:00,40.1,27.4,30.30,NNW,338,0.0,0.0,60,0.00,,,0.00,VWS V14.01,2013-02-01 08:45:00,
2013-02-01 02:50:00,39.8,27.5,30.30,NNW,338,0.0,1.0,61,0.00,,,0.00,VWS V14.01,2013-02-01 08:50:00,
2013-02-01 02:55:00,39.1,28.3,30.30,NNW,338,0.0,1.0,65,0.00,,,0.00,VWS V14.01,2013-02-01 08:55:00,
2013-02-01 03:00:00,39.2,29.2,30.30,NNW,338,1.0,2.0,67,0.00,,,0.00,VWS V14.01,2013-02-01 09:00:00,
2013-02-01 03:05:00,40.0,28.4,30.30,NNW,338,0.0,1.0,63,0.00,,,0.00,VWS V14.01,2013-02-01 09:05:00,
2013-02-01 03:10:00,40.0,28.8,30.30,NNW,338,0.0,0.0,64,0.00,,,0.00,VWS V14.01,2013-02-01 09:10:00,
2013-02-01 03:15:00,39.9,28.3,30.30,NNW,338,0.0,0.0,63,0.00,,,0.00,VWS V14.01,2013-02-01 09:15:00,
2013-02-01 03:20:00,40.1,28.1,30.30,NNW,338,0.0,0.0,62,0.00,,,0.00,VWS V14.01,2013-02-01 09:20:00,
2013-02-01 03:25:00,40.0,28.8,30.30,NNW,338,0.0,0.0,64,0.00,,,0.00,VWS V14.01,2013-02-01 09:25:00,
2013-02-01 03:30:00,39.9,29.1,30.30,NNW,338,0.0,0.0,65,0.00,,,0.00,VWS V14.01,2013-02-01 09:30:00,
2013-02-01 03:35:00,39.5,29.1,30.30,NNW,338,0.0,0.0,66,0.00,,,0.00,VWS V14.01,2013-02-01 09:35:00,
2013-02-01 03:40:00,39.0,29.4,30.30,NNW,338,0.0,0.0,68,0.00,,,0.00,VWS V14.01,2013-02-01 09:40:00,
2013-02-01 03:45:00,38.6,29.7,30.30,NNW,338,0.0,0.0,70,0.00,,,0.00,VWS V14.01,2013-02-01 09:45:00,
2013-02-01 03:50:00,38.9,30.7,30.31,NNE,22,2.0,4.0,72,0.00,,,0.00,VWS V14.01,2013-02-01 09:50:00,
2013-02-01 03:55:00,42.8,28.6,30.32,North,0,6.0,12.0,57,0.00,,,0.00,VWS V14.01,2013-02-01 09:55:00,
2013-02-01 04:00:00,45.3,28.7,30.31,NNW,338,2.0,5.0,52,0.00,,,0.00,VWS V14.01,2013-02-01 10:00:00,
2013-02-01 04:05:00,45.2,29.6,30.31,North,0,0.0,1.0,54,0.00,,,0.00,VWS V14.01,2013-02-01 10:05:00,
2013-02-01 04:10:00,44.0,29.3,30.31,North,0,0.0,2.0,56,0.00,,,0.00,VWS V14.01,2013-02-01 10:10:00,
2013-02-01 04:15:00,44.2,29.1,30.32,South,180,2.0,3.0,55,0.00,,,0.00,VWS V14.01,2013-02-01 10:15:00,
2013-02-01 04:20:00,44.4,29.7,30.32,South,180,0.0,2.0,56,0.00,,,0.00,VWS V14.01,2013-02-01 10:20:00,
2013-02-01 04:25:00,44.0,29.8,30.32,South,180,0.0,1.0,57,0.00,,,0.00,VWS V14.01,2013-02-01 10:25:00,
2013-02-01 04:30:00,43.3,29.5,30.31,South,180,0.0,1.0,58,0.00,,,0.00,VWS V14.01,2013-02-01 10:30:00,
2013-02-01 04:35:00,43.1,28.9,30.31,South,180,0.0,1.0,57,0.00,,,0.00,VWS V14.01,2013-02-01 10:35:00,
2013-02-01 04:40:00,42.9,29.6,30.31,South,180,0.0,1.0,59,0.00,,,0.00,VWS V14.01,2013-02-01 10:40:00,
2013-02-01 04:45:00,42.4,28.7,30.31,South,180,0.0,0.0,58,0.00,,,0.00,VWS V14.01,2013-02-01 10:45:00,
2013-02-01 04:50:00,42.5,28.4,30.31,North,0,0.0,1.0,57,0.00,,,0.00,VWS V14.01,2013-02-01 10:50:00,
2013-02-01 04:55:00,42.2,29.7,30.32,North,0,0.0,1.0,61,0.00,,,0.00,VWS V14.01,2013-02-01 10:55:00,
2013-02-01 05:00:00,42.0,28.7,30.31,North,0,0.0,1.0,59,0.00,,,0.00,VWS V14.01,2013-02-01 11:00:00,
2013-02-01 05:05:00,42.2,29.7,30.31,North,0,0.0,1.0,61,0.00,,,0.00,VWS V14.01,2013-02-01 11:05:00,
2013-02-01 05:10:00,42.4,29.5,30.31,North,0,1.0,2.0,60,0.00,,,0.00,VWS V14.01,2013-02-01 11:10:00,
2013-02-01 05:15:00,42.7,29.4,30.31,East,90,0.0,1.0,59,0.00,,,0.00,VWS V14.01,2013-02-01 11:15:00,
2013-02-01 05:20:00,43.3,30.0,30.31,ENE,68,0.0,1.0,59,0.00,,,0.00,VWS V14.01,2013-02-01 11:20:00,
2013-02-01 05:25:00,43.0,29.2,30.32,ENE,68,0.0,0.0,58,0.00,,,0.00,VWS V14.01,2013-02-01 11:25:00,
2013-02-01 05:30:00,43.1,28.9,30.32,NNE,22,0.0,1.0,57,0.00,,,0.00,VWS V14.01,2013-02-01 11:30:00,
2013-02-01 05:35:00,44.2,28.6,30.32,NNE,22,2.0,7.0,54,0.00,,,0.00,VWS V14.01,2013-02-01 11:35:00,
2013-02-01 05:40:00,45.1,28.5,30.33,NNE,22,4.0,6.0,52,0.00,,,0.00,VWS V14.01,2013-02-01 11:40:00,
2013-02-01 05:45:00,45.4,28.8,30.33,NNE,22,3.0,5.0,52,0.00,,,0.00,VWS V14.01,2013-02-01 11:45:00,
2013-02-01 05:50:00,45.4,28.8,30.33,NNE,22,2.0,4.0,52,0.00,,,0.00,VWS V14.01,2013-02-01 11:50:00,
2013-02-01 05:55:00,45.4,29.3,30.33,North,0,2.0,6.0,53,0.00,,,0.00,VWS V14.01,2013-02-01 11:55:00,
2013-02-01 06:00:00,45.3,29.6,30.33,NNE,22,3.0,6.0,54,0.00,,,0.00,VWS V14.01,2013-02-01 12:00:00,
2013-02-01 06:05:00,45.2,29.6,30.33,NNE,22,5.0,10.0,54,0.00,,,0.00,VWS V14.01,2013-02-01 12:05:00,
2013-02-01 06:10:00,45.0,29.8,30.33,NNE,22,5.0,12.0,55,0.00,,,0.00,VWS V14.01,2013-02-01 12:10:00,
2013-02-01 06:15:00,44.9,30.2,30.34,NNE,22,5.0,9.0,56,0.00,,,0.00,VWS V14.01,2013-02-01 12:15:00,
2013-02-01 06:20:00,44.7,30.0,30.34,NE,45,5.0,8.0,56,0.00,,,0.00,VWS V14.01,2013-02-01 12:20:00,
2013-02-01 06:25:00,44.5,29.8,30.34,NNE,22,6.0,14.0,56,0.00,,,0.00,VWS V14.01,2013-02-01 12:25:00,
2013-02-01 06:30:00,44.4,29.7,30.34,NNE,22,7.0,14.0,56,0.00,,,0.00,VWS V14.01,2013-02-01 12:30:00,
2013-02-01 06:35:00,44.3,30.0,30.34,NNE,22,7.0,11.0,57,0.00,,,0.00,VWS V14.01,2013-02-01 12:35:00,
2013-02-01 06:40:00,44.0,29.8,30.34,NNE,22,4.0,9.0,57,0.00,,,0.00,VWS V14.01,2013-02-01 12:40:00,
2013-02-01 06:45:00,43.9,30.1,30.34,NE,45,5.0,9.0,58,0.00,,,0.00,VWS V14.01,2013-02-01 12:45:00,
2013-02-01 06:50:00,43.6,30.2,30.34,NE,45,3.0,7.0,59,0.00,,,0.00,VWS V14.01,2013-02-01 12:50:00,
2013-02-01 06:55:00,43.3,30.0,30.34,NNE,22,2.0,4.0,59,0.00,,,0.00,VWS V14.01,2013-02-01 12:55:00,
2013-02-01 07:00:00,43.0,30.1,30.35,NE,45,2.0,4.0,60,0.00,,,0.00,VWS V14.01,2013-02-01 13:00:00,
2013-02-01 07:05:00,42.6,30.1,30.35,East,90,1.0,4.0,61,0.00,,,0.00,VWS V14.01,2013-02-01 13:05:00,
2013-02-01 07:10:00,42.3,29.8,30.35,ESE,112,1.0,4.0,61,0.00,,,0.00,VWS V14.01,2013-02-01 13:10:00,
2013-02-01 07:15:00,42.0,29.9,30.35,ESE,112,1.0,3.0,62,0.00,,,0.00,VWS V14.01,2013-02-01 13:15:00,
2013-02-01 07:20:00,41.8,30.1,30.36,NE,45,1.0,2.0,63,0.00,,,0.00,VWS V14.01,2013-02-01 13:20:00,
2013-02-01 07:25:00,41.6,29.6,30.36,NE,45,0.0,1.0,62,0.00,,,0.00,VWS V14.01,2013-02-01 13:25:00,
2013-02-01 07:30:00,41.1,29.9,30.36,NE,45,0.0,1.0,64,0.00,,,0.00,VWS V14.01,2013-02-01 13:30:00,
2013-02-01 07:35:00,41.1,29.9,30.36,NE,45,0.0,0.0,64,0.00,,,0.00,VWS V14.01,2013-02-01 13:35:00,
2013-02-01 07:40:00,41.3,30.1,30.36,NE,45,0.0,0.0,64,0.00,,,0.00,VWS V14.01,2013-02-01 13:40:00,
2013-02-01 07:45:00,42.1,30.8,30.36,NE,45,0.0,0.0,64,0.00,,,0.00,VWS V14.01,2013-02-01 13:45:00,
2013-02-01 07:50:00,42.8,30.7,30.36,NE,45,0.0,0.0,62,0.00,,,0.00,VWS V14.01,2013-02-01 13:50:00,
2013-02-01 07:55:00,43.3,30.8,30.36,NNE,22,1.0,2.0,61,0.00,,,0.00,VWS V14.01,2013-02-01 13:55:00,
2013-02-01 08:00:00,43.5,31.4,30.36,NNE,22,2.0,3.0,62,0.00,,,0.00,VWS V14.01,2013-02-01 14:00:00,
2013-02-01 08:05:00,44.0,31.4,30.36,NNE,22,2.0,4.0,61,0.00,,,0.00,VWS V14.01,2013-02-01 14:05:00,
2013-02-01 08:10:00,44.3,31.7,30.36,NE,45,2.0,5.0,61,0.00,,,0.00,VWS V14.01,2013-02-01 14:10:00,
2013-02-01 08:15:00,44.9,31.9,30.36,NNE,22,2.0,3.0,60,0.00,,,0.00,VWS V14.01,2013-02-01 14:15:00,
2013-02-01 08:20:00,44.9,31.5,30.36,NE,45,3.0,6.0,59,0.00,,,0.00,VWS V14.01,2013-02-01 14:20:00,
2013-02-01 08:25:00,45.0,32.0,30.36,NE,45,4.0,6.0,60,0.00,,,0.00,VWS V14.01,2013-02-01 14:25:00,
2013-02-01 08:30:00,45.1,31.6,30.36,NE,45,5.0,7.0,59,0.00,,,0.00,VWS V14.01,2013-02-01 14:30:00,
2013-02-01 08:35:00,45.2,31.7,30.36,NNE,22,4.0,7.0,59,0.00,,,0.00,VWS V14.01,2013-02-01 14:35:00,
2013-02-01 08:40:00,45.5,32.0,30.37,NNE,22,3.0,5.0,59,0.00,,,0.00,VWS V14.01,2013-02-01 14:40:00,
2013-02-01 08:45:00,45.9,32.8,30.36,NNE,22,3.0,6.0,60,0.00,,,0.00,VWS V14.01,2013-02-01 14:45:00,
2013-02-01 08:50:00,46.4,32.0,30.37,ENE,68,4.0,6.0,57,0.00,,,0.00,VWS V14.01,2013-02-01 14:50:00,
2013-02-01 08:55:00,46.5,32.1,30.37,ENE,68,3.0,5.0,57,0.00,,,0.00,VWS V14.01,2013-02-01 14:55:00,
2013-02-01 09:00:00,46.8,32.4,30.37,NNE,22,3.0,5.0,57,0.00,,,0.00,VWS V14.01,2013-02-01 15:00:00,
2013-02-01 09:05:00,47.4,33.4,30.37,ENE,68,3.0,5.0,58,0.00,,,0.00,VWS V14.01,2013-02-01 15:05:00,
2013-02-01 09:10:00,47.6,32.7,30.37,NE,45,3.0,4.0,56,0.00,,,0.00,VWS V14.01,2013-02-01 15:10:00,
2013-02-01 09:15:00,47.7,32.8,30.37,NNE,22,2.0,4.0,56,0.00,,,0.00,VWS V14.01,2013-02-01 15:15:00,
2013-02-01 09:20:00,48.0,32.6,30.37,East,90,3.0,4.0,55,0.00,,,0.00,VWS V14.01,2013-02-01 15:20:00,
2013-02-01 09:25:00,48.8,32.9,30.37,NNE,22,1.0,4.0,54,0.00,,,0.00,VWS V14.01,2013-02-01 15:25:00,
2013-02-01 09:30:00,49.1,32.7,30.36,East,90,1.0,4.0,53,0.00,,,0.00,VWS V14.01,2013-02-01 15:30:00,
2013-02-01 09:35:00,49.9,33.0,30.36,ENE,68,1.0,3.0,52,0.00,,,0.00,VWS V14.01,2013-02-01 15:35:00,
2013-02-01 09:40:00,50.8,32.8,30.36,NE,45,1.0,3.0,50,0.00,,,0.00,VWS V14.01,2013-02-01 15:40:00,
2013-02-01 09:45:00,50.6,33.2,30.36,East,90,2.0,4.0,51,0.00,,,0.00,VWS V14.01,2013-02-01 15:45:00,
2013-02-01 09:50:00,51.0,33.0,30.36,NE,45,2.0,6.0,50,0.00,,,0.00,VWS V14.01,2013-02-01 15:50:00,
2013-02-01 09:55:00,50.9,33.4,30.35,SE,135,3.0,6.0,51,0.00,,,0.00,VWS V14.01,2013-02-01 15:55:00,
2013-02-01 10:00:00,51.1,33.6,30.36,SSE,158,3.0,4.0,51,0.00,,,0.00,VWS V14.01,2013-02-01 16:00:00,
2013-02-01 10:05:00,51.3,33.3,30.36,ESE,112,3.0,7.0,50,0.00,,,0.00,VWS V14.01,2013-02-01 16:05:00,
2013-02-01 10:10:00,51.4,33.4,30.36,SE,135,3.0,5.0,50,0.00,,,0.00,VWS V14.01,2013-02-01 16:10:00,
2013-02-01 10:15:00,52.0,33.5,30.36,ESE,112,2.0,5.0,49,0.00,,,0.00,VWS V14.01,2013-02-01 16:15:00,
2013-02-01 10:20:00,52.6,34.0,30.35,ESE,112,2.0,5.0,49,0.00,,,0.00,VWS V14.01,2013-02-01 16:20:00,
2013-02-01 10:25:00,52.8,34.2,30.35,ESE,112,2.0,6.0,49,0.00,,,0.00,VWS V14.01,2013-02-01 16:25:00,
2013-02-01 10:30:00,53.7,34.5,30.35,East,90,2.0,5.0,48,0.00,,,0.00,VWS V14.01,2013-02-01 16:30:00,
2013-02-01 10:35:00,53.9,34.2,30.35,ESE,112,3.0,5.0,47,0.00,,,0.00,VWS V14.01,2013-02-01 16:35:00,
2013-02-01 10:40:00,54.5,35.2,30.35,East,90,1.0,2.0,48,0.00,,,0.00,VWS V14.01,2013-02-01 16:40:00,
2013-02-01 10:45:00,55.1,34.7,30.35,SE,135,3.0,5.0,46,0.00,,,0.00,VWS V14.01,2013-02-01 16:45:00,
2013-02-01 10:50:00,55.5,35.1,30.35,ESE,112,3.0,7.0,46,0.00,,,0.00,VWS V14.01,2013-02-01 16:50:00,
2013-02-01 10:55:00,55.3,34.9,30.35,SE,135,2.0,6.0,46,0.00,,,0.00,VWS V14.01,2013-02-01 16:55:00,
2013-02-01 11:00:00,56.2,35.2,30.34,ENE,68,2.0,6.0,45,0.00,,,0.00,VWS V14.01,2013-02-01 17:00:00,
2013-02-01 11:05:00,56.2,35.2,30.34,SSE,158,3.0,6.0,45,0.00,,,0.00,VWS V14.01,2013-02-01 17:05:00,
2013-02-01 11:10:00,57.0,36.4,30.34,SSE,158,2.0,3.0,46,0.00,,,0.00,VWS V14.01,2013-02-01 17:10:00,
2013-02-01 11:15:00,57.1,35.4,30.34,SSE,158,4.0,6.0,44,0.00,,,0.00,VWS V14.01,2013-02-01 17:15:00,
2013-02-01 11:20:00,57.1,36.0,30.34,SE,135,2.0,5.0,45,0.00,,,0.00,VWS V14.01,2013-02-01 17:20:00,
2013-02-01 11:25:00,57.8,36.6,30.34,SSE,158,2.0,6.0,45,0.00,,,0.00,VWS V14.01,2013-02-01 17:25:00,
2013-02-01 11:30:00,58.2,37.0,30.34,SSE,158,3.0,7.0,45,0.00,,,0.00,VWS V14.01,2013-02-01 17:30:00,
2013-02-01 11:35:00,58.2,37.0,30.33,SE,135,2.0,6.0,45,0.00,,,0.00,VWS V14.01,2013-02-01 17:35:00,
2013-02-01 11:40:00,58.6,37.3,30.33,East,90,4.0,8.0,45,0.00,,,0.00,VWS V14.01,2013-02-01 17:40:00,
2013-02-01 11:45:00,58.6,36.8,30.32,ESE,112,3.0,7.0,44,0.00,,,0.00,VWS V14.01,2013-02-01 17:45:00,
2013-02-01 11:50:00,58.6,37.3,30.32,East,90,5.0,9.0,45,0.00,,,0.00,VWS V14.01,2013-02-01 17:50:00,
2013-02-01 11:55:00,59.7,37.8,30.32,SSW,202,4.0,7.0,44,0.00,,,0.00,VWS V14.01,2013-02-01 17:55:00,
2013-02-01 12:00:00,59.8,37.9,30.31,SE,135,6.0,10.0,44,0.00,,,0.00,VWS V14.01,2013-02-01 18:00:00,
2013-02-01 12:05:00,60.3,38.9,30.31,SE,135,5.0,10.0,45,0.00,,,0.00,VWS V14.01,2013-02-01 18:05:00,
2013-02-01 12:10:00,60.9,38.9,30.31,SSE,158,5.0,8.0,44,0.00,,,0.00,VWS V14.01,2013-02-01 18:10:00,
2013-02-01 12:15:00,61.3,39.2,30.30,ESE,112,6.0,12.0,44,0.00,,,0.00,VWS V14.01,2013-02-01 18:15:00,
2013-02-01 12:20:00,61.7,39.0,30.30,SE,135,5.0,11.0,43,0.00,,,0.00,VWS V14.01,2013-02-01 18:20:00,
2013-02-01 12:25:00,62.1,38.8,30.30,SE,135,4.0,10.0,42,0.00,,,0.00,VWS V14.01,2013-02-01 18:25:00,
2013-02-01 12:30:00,62.5,39.1,30.29,SE,135,6.0,10.0,42,0.00,,,0.00,VWS V14.01,2013-02-01 18:30:00,
2013-02-01 12:35:00,63.2,40.3,30.28,SE,135,4.0,9.0,43,0.00,,,0.00,VWS V14.01,2013-02-01 18:35:00,
2013-02-01 12:40:00,64.2,41.3,30.28,SE,135,6.0,12.0,43,0.00,,,0.00,VWS V14.01,2013-02-01 18:40:00,
2013-02-01 12:45:00,64.9,41.3,30.27,SE,135,6.0,13.0,42,0.00,,,0.00,VWS V14.01,2013-02-01 18:45:00,
2013-02-01 12:50:00,65.6,40.7,30.27,South,180,8.0,14.0,40,0.00,,,0.00,VWS V14.01,2013-02-01 18:50:00,
2013-02-01 12:55:00,65.8,41.5,30.27,SSE,158,8.0,13.0,41,0.00,,,0.00,VWS V14.01,2013-02-01 18:55:00,
2013-02-01 13:00:00,65.7,41.4,30.26,SE,135,7.0,11.0,41,0.00,,,0.00,VWS V14.01,2013-02-01 19:00:00,
2013-02-01 13:05:00,66.4,40.7,30.26,South,180,9.0,15.0,39,0.00,,,0.00,VWS V14.01,2013-02-01 19:05:00,
2013-02-01 13:10:00,66.7,41.6,30.25,SSW,202,7.0,12.0,40,0.00,,,0.00,VWS V14.01,2013-02-01 19:10:00,
2013-02-01 13:15:00,66.9,41.8,30.25,SSW,202,9.0,15.0,40,0.00,,,0.00,VWS V14.01,2013-02-01 19:15:00,
2013-02-01 13:20:00,67.1,42.0,30.25,SW,225,8.0,15.0,40,0.00,,,0.00,VWS V14.01,2013-02-01 19:20:00,
2013-02-01 13:25:00,66.9,41.8,30.25,South,180,9.0,14.0,40,0.00,,,0.00,VWS V14.01,2013-02-01 19:25:00,
2013-02-01 13:30:00,66.7,42.3,30.24,SE,135,8.0,15.0,41,0.00,,,0.00,VWS V14.01,2013-02-01 19:30:00,
2013-02-01 13:35:00,67.0,40.6,30.24,SSE,158,8.0,12.0,38,0.00,,,0.00,VWS V14.01,2013-02-01 19:35:00,
2013-02-01 13:40:00,67.3,38.0,30.24,SSE,158,10.0,19.0,34,0.00,,,0.00,VWS V14.01,2013-02-01 19:40:00,
2013-02-01 13:45:00,68.0,38.6,30.24,SSE,158,9.0,13.0,34,0.00,,,0.00,VWS V14.01,2013-02-01 19:45:00,
2013-02-01 13:50:00,68.7,35.2,30.21,South,177,12.0,19.0,29,0.00,,,0.00,VWS V14.01,2013-02-01 19:50:00,
2013-02-01 13:55:00,69.0,35.5,30.20,SE,136,12.0,20.0,29,0.00,,,0.00,VWS V14.01,2013-02-01 19:55:00,
2013-02-01 13:59:00,68.2,38.8,30.24,South,180,8.0,14.0,34,0.00,,,0.00,VWS V14.01,2013-02-01 19:59:00,
2013-02-01 14:00:00,69.0,35.5,30.20,SSW,208,7.0,16.0,29,0.00,,,0.00,VWS V14.01,2013-02-01 20:00:00,
2013-02-01 14:04:00,68.1,37.9,30.23,ESE,115,9.0,16.0,33,0.00,,,0.00,VWS V14.01,2013-02-01 20:04:00,
2013-02-01 14:05:00,69.4,36.7,30.20,SSE,155,12.0,15.0,30,0.00,,,0.00,VWS V14.01,2013-02-01 20:05:00,
2013-02-01 14:09:00,68.3,39.6,30.23,SSW,205,10.0,19.0,35,0.00,,,0.00,VWS V14.01,2013-02-01 20:09:00,
2013-02-01 14:10:00,69.0,35.5,30.20,SSE,161,12.0,16.0,29,0.00,,,0.00,VWS V14.01,2013-02-01 20:10:00,
2013-02-01 14:14:00,68.2,38.0,30.23,SE,140,11.0,17.0,33,0.00,,,0.00,VWS V14.01,2013-02-01 20:14:00,
2013-02-01 14:15:00,68.6,36.0,30.20,SSE,150,9.0,14.0,30,0.00,,,0.00,VWS V14.01,2013-02-01 20:15:00,
2013-02-01 14:19:00,68.2,36.4,30.22,SSE,165,13.0,19.0,31,0.00,,,0.00,VWS V14.01,2013-02-01 20:19:00,
2013-02-01 14:20:00,69.1,37.2,30.20,SE,140,6.0,12.0,31,0.00,,,0.00,VWS V14.01,2013-02-01 20:20:00,
2013-02-01 14:24:00,68.1,35.5,30.22,SSE,157,11.0,22.0,30,0.00,,,0.00,VWS V14.01,2013-02-01 20:24:00,
2013-02-01 14:25:00,69.2,37.3,30.19,SSW,213,10.0,16.0,31,0.00,,,0.00,VWS V14.01,2013-02-01 20:25:00,
2013-02-01 14:29:00,68.4,35.8,30.22,SSW,198,9.0,15.0,30,0.00,,,0.00,VWS V14.01,2013-02-01 20:29:00,
2013-02-01 14:30:00,68.8,37.0,30.19,South,171,10.0,15.0,31,0.00,,,0.00,VWS V14.01,2013-02-01 20:30:00,
2013-02-01 14:34:00,68.6,35.1,30.22,South,176,6.0,19.0,29,0.00,,,0.00,VWS V14.01,2013-02-01 20:34:00,
2013-02-01 14:35:00,68.5,36.7,30.19,SSW,199,9.0,11.0,31,0.00,,,0.00,VWS V14.01,2013-02-01 20:35:00,
2013-02-01 14:38:00,68.8,36.1,30.22,SSW,203,9.0,18.0,30,0.00,,,0.00,VWS V14.01,2013-02-01 20:38:00,
2013-02-01 14:40:00,68.6,36.8,30.19,SW,227,7.0,13.0,31,0.00,,,0.00,VWS V14.01,2013-02-01 20:40:00,
2013-02-01 14:43:00,69.0,35.5,30.21,SSW,195,7.0,16.0,29,0.00,,,0.00,VWS V14.01,2013-02-01 20:43:00,
2013-02-01 14:45:00,68.9,36.2,30.19,SSW,203,9.0,15.0,30,0.00,,,0.00,VWS V14.01,2013-02-01 20:45:00,
2013-02-01 14:48:00,68.9,35.4,30.21,South,169,11.0,19.0,29,0.00,,,0.00,VWS V14.01,2013-02-01 20:48:00,
2013-02-01 14:50:00,69.3,37.4,30.19,SSE,158,6.0,14.0,31,0.00,,,0.00,VWS V14.01,2013-02-01 20:50:00,
2013-02-01 14:53:00,68.8,35.3,30.20,SSE,161,9.0,20.0,29,0.00,,,0.00,VWS V14.01,2013-02-01 20:53:00,
2013-02-01 14:55:00,69.2,37.3,30.19,SE,125,8.0,14.0,31,0.00,,,0.00,VWS V14.01,2013-02-01 20:55:00,
2013-02-01 14:58:00,69.1,34.7,30.20,SSW,213,8.0,16.0,28,0.00,,,0.00,VWS V14.01,2013-02-01 20:58:00,
2013-02-01 15:00:00,69.2,37.3,30.19,SSW,199,9.0,17.0,31,0.00,,,0.00,VWS V14.01,2013-02-01 21:00:00,
2013-02-01 15:03:00,69.2,36.5,30.20,South,172,6.0,12.0,30,0.00,,,0.00,VWS V14.01,2013-02-01 21:03:00,
2013-02-01 15:05:00,69.2,37.3,30.19,SSE,162,6.0,15.0,31,0.00,,,0.00,VWS V14.01,2013-02-01 21:05:00,
2013-02-01 15:08:00,69.1,35.5,30.20,SSE,161,11.0,15.0,29,0.00,,,0.00,VWS V14.01,2013-02-01 21:08:00,
2013-02-01 15:10:00,69.0,37.1,30.18,SSE,156,10.0,13.0,31,0.00,,,0.00,VWS V14.01,2013-02-01 21:10:00,
2013-02-01 15:13:00,68.6,36.0,30.20,SE,135,11.0,14.0,30,0.00,,,0.00,VWS V14.01,2013-02-01 21:13:00,
2013-02-01 15:15:00,68.8,37.0,30.19,South,186,9.0,19.0,31,0.00,,,0.00,VWS V14.01,2013-02-01 21:15:00,
2013-02-01 15:18:00,69.0,37.1,30.20,SSE,150,7.0,12.0,31,0.00,,,0.00,VWS V14.01,2013-02-01 21:18:00,
2013-02-01 15:20:00,68.5,36.7,30.19,South,182,13.0,14.0,31,0.00,,,0.00,VWS V14.01,2013-02-01 21:20:00,
2013-02-01 15:23:00,69.2,36.5,30.20,South,174,8.0,16.0,30,0.00,,,0.00,VWS V14.01,2013-02-01 21:23:00,
2013-02-01 15:25:00,68.7,36.9,30.18,SSW,199,7.0,14.0,31,0.00,,,0.00,VWS V14.01,2013-02-01 21:25:00,
2013-02-01 15:28:00,68.9,37.0,30.20,SE,145,11.0,15.0,31,0.00,,,0.00,VWS V14.01,2013-02-01 21:28:00,
2013-02-01 15:30:00,68.6,36.8,30.18,South,169,7.0,16.0,31,0.00,,,0.00,VWS V14.01,2013-02-01 21:30:00,
2013-02-01 15:33:00,68.5,36.7,30.19,SSW,194,9.0,10.0,31,0.00,,,0.00,VWS V14.01,2013-02-01 21:33:00,
2013-02-01 15:35:00,68.6,36.8,30.18,SSE,160,10.0,18.0,31,0.00,,,0.00,VWS V14.01,2013-02-01 21:35:00,
2013-02-01 15:38:00,68.6,36.8,30.19,SSE,165,7.0,13.0,31,0.00,,,0.00,VWS V14.01,2013-02-01 21:38:00,
2013-02-01 15:40:00,68.7,36.0,30.19,South,186,9.0,16.0,30,0.00,,,0.00,VWS V14.01,2013-02-01 21:40:00,
2013-02-01 15:43:00,68.8,36.1,30.19,SSE,151,6.0,13.0,30,0.00,,,0.00,VWS V14.01,2013-02-01 21:43:00,
2013-02-01 15:45:00,68.5,35.9,30.18,SSW,192,5.0,14.0,30,0.00,,,0.00,VWS V14.01,2013-02-01 21:45:00,
2013-02-01 15:48:00,69.1,36.4,30.19,SSE,160,8.0,14.0,30,0.00,,,0.00,VWS V14.01,2013-02-01 21:48:00,
2013-02-01 15:50:00,68.6,36.0,30.18,SSE,154,9.0,14.0,30,0.00,,,0.00,VWS V14.01,2013-02-01 21:50:00,
2013-02-01 15:53:00,69.3,36.6,30.19,SSE,162,7.0,14.0,30,0.00,,,0.00,VWS V14.01,2013-02-01 21:53:00,
2013-02-01 15:55:00,68.6,36.0,30.18,SSE,165,5.0,12.0,30,0.00,,,0.00,VWS V14.01,2013-02-01 21:55:00,
2013-02-01 15:58:00,69.2,37.3,30.19,SE,143,13.0,17.0,31,0.00,,,0.00,VWS V14.01,2013-02-01 21:58:00,
2013-02-01 16:00:00,68.4,35.8,30.17,South,181,9.0,13.0,30,0.00,,,0.00,VWS V14.01,2013-02-01 22:00:00,
2013-02-01 16:03:00,69.2,37.3,30.19,SSE,151,12.0,15.0,31,0.00,,,0.00,VWS V14.01,2013-02-01 22:03:00,
2013-02-01 16:05:00,68.2,35.6,30.17,South,189,4.0,16.0,30,0.00,,,0.00,VWS V14.01,2013-02-01 22:05:00,
2013-02-01 16:08:00,68.9,37.0,30.19,South,185,7.0,13.0,31,0.00,,,0.00,VWS V14.01,2013-02-01 22:08:00,
2013-02-01 16:10:00,68.1,35.5,30.17,SSW,202,10.0,14.0,30,0.00,,,0.00,VWS V14.01,2013-02-01 22:10:00,
2013-02-01 16:13:00,68.9,37.0,30.19,SE,144,11.0,19.0,31,0.00,,,0.00,VWS V14.01,2013-02-01 22:13:00,
2013-02-01 16:15:00,67.9,35.3,30.17,SSW,199,6.0,16.0,30,0.00,,,0.00,VWS V14.01,2013-02-01 22:15:00,
2013-02-01 16:18:00,68.5,36.7,30.19,South,172,4.0,14.0,31,0.00,,,0.00,VWS V14.01,2013-02-01 22:18:00,
2013-02-01 16:20:00,67.7,35.2,30.17,SSE,161,6.0,17.0,30,0.00,,,0.00,VWS V14.01,2013-02-01 22:20:00,
2013-02-01 16:23:00,68.6,36.8,30.19,SSW,200,9.0,14.0,31,0.00,,,0.00,VWS V14.01,2013-02-01 22:23:00,
2013-02-01 16:25:00,67.6,35.1,30.17,South,191,7.0,12.0,30,0.00,,,0.00,VWS V14.01,2013-02-01 22:25:00,
2013-02-01 16:28:00,68.6,36.8,30.19,South,185,10.0,16.0,31,0.00,,,0.00,VWS V14.01,2013-02-01 22:28:00,
2013-02-01 16:30:00,67.5,35.8,30.17,SSW,195,7.0,11.0,31,0.00,,,0.00,VWS V14.01,2013-02-01 22:30:00,
2013-02-01 16:33:00,68.5,36.7,30.18,SE,142,3.0,9.0,31,0.00,,,0.00,VWS V14.01,2013-02-01 22:33:00,
2013-02-01 16:35:00,67.3,34.8,30.17,South,185,8.0,13.0,30,0.00,,,0.00,VWS V14.01,2013-02-01 22:35:00,
2013-02-01 16:38:00,68.7,36.9,30.18,South,172,8.0,12.0,31,0.00,,,0.00,VWS V14.01,2013-02-01 22:38:00,
2013-02-01 16:40:00,67.2,35.6,30.17,SSW,211,7.0,14.0,31,0.00,,,0.00,VWS V14.01,2013-02-01 22:40:00,
2013-02-01 16:43:00,68.6,36.0,30.18,SSE,167,8.0,14.0,30,0.00,,,0.00,VWS V14.01,2013-02-01 22:43:00,
2013-02-01 16:45:00,67.0,35.4,30.16,SSW,199,5.0,11.0,31,0.00,,,0.00,VWS V14.01,2013-02-01 22:45:00,
2013-02-01 16:48:00,68.6,36.0,30.18,SSE,156,9.0,14.0,30,0.00,,,0.00,VWS V14.01,2013-02-01 22:48:00,
2013-02-01 16:50:00,66.6,35.0,30.16,SSE,161,6.0,8.0,31,0.00,,,0.00,VWS V14.01,2013-02-01 22:50:00,
2013-02-01 16:53:00,68.6,36.0,30.18,SSE,165,7.0,12.0,30,0.00,,,0.00,VWS V14.01,2013-02-01 22:53:00,
2013-02-01 16:55:00,66.4,34.9,30.16,South,171,6.0,9.0,31,0.00,,,0.00,VWS V14.01,2013-02-01 22:55:00,
2013-02-01 16:58:00,68.4,35.8,30.18,SSW,199,5.0,13.0,30,0.00,,,0.00,VWS V14.01,2013-02-01 22:58:00,
2013-02-01 17:00:00,66.0,35.3,30.16,South,173,5.0,8.0,32,0.00,,,0.00,VWS V14.01,2013-02-01 23:00:00,
2013-02-01 17:03:00,68.2,35.6,30.17,South,179,6.0,16.0,30,0.00,,,0.00,VWS V14.01,2013-02-01 23:03:00,
2013-02-01 17:05:00,65.6,35.0,30.15,South,184,3.0,7.0,32,0.00,,,0.00,VWS V14.01,2013-02-01 23:05:00,
2013-02-01 17:08:00,68.1,35.5,30.17,SSE,154,7.0,13.0,30,0.00,,,0.00,VWS V14.01,2013-02-01 23:08:00,
2013-02-01 17:10:00,65.4,35.6,30.16,SE,144,4.0,8.0,33,0.00,,,0.00,VWS V14.01,2013-02-01 23:10:00,
2013-02-01 17:13:00,68.0,35.4,30.17,South,184,9.0,16.0,30,0.00,,,0.00,VWS V14.01,2013-02-01 23:13:00,
2013-02-01 17:15:00,65.2,35.4,30.16,South,170,3.0,6.0,33,0.00,,,0.00,VWS V14.01,2013-02-01 23:15:00,
2013-02-01 17:18:00,67.7,35.2,30.17,SSW,208,11.0,17.0,30,0.00,,,0.00,VWS V14.01,2013-02-01 23:18:00,
2013-02-01 17:20:00,64.9,35.1,30.16,SSE,150,4.0,7.0,33,0.00,,,0.00,VWS V14.01,2013-02-01 23:20:00,
2013-02-01 17:23:00,67.6,35.1,30.17,SE,146,6.0,12.0,30,0.00,,,0.00,VWS V14.01,2013-02-01 23:23:00,
2013-02-01 17:25:00,64.6,34.9,30.16,SE,134,2.0,4.0,33,0.00,,,0.00,VWS V14.01,2013-02-01 23:25:00,
2013-02-01 17:28:00,67.5,35.8,30.17,SSW,199,7.0,11.0,31,0.00,,,0.00,VWS V14.01,2013-02-01 23:28:00,
2013-02-01 17:30:00,64.3,35.4,30.16,SE,135,2.0,3.0,34,0.00,,,0.00,VWS V14.01,2013-02-01 23:30:00,
2013-02-01 17:33:00,67.3,35.7,30.17,SSE,147,9.0,13.0,31,0.00,,,0.00,VWS V14.01,2013-02-01 23:33:00,
2013-02-01 17:35:00,63.9,35.0,30.16,SE,136,1.0,3.0,34,0.00,,,0.00,VWS V14.01,2013-02-01 23:35:00,
2013-02-01 17:38:00,67.2,34.8,30.17,South,180,7.0,14.0,30,0.00,,,0.00,VWS V14.01,2013-02-01 23:38:00,
2013-02-01 17:40:00,63.5,34.7,30.16,SE,136,0.0,2.0,34,0.00,,,0.00,VWS V14.01,2013-02-01 23:40:00,
2013-02-01 17:43:00,67.1,35.5,30.16,South,177,7.0,11.0,31,0.00,,,0.00,VWS V14.01,2013-02-01 23:43:00,
2013-02-01 17:45:00,63.2,35.1,30.16,SE,139,1.0,3.0,35,0.00,,,0.00,VWS V14.01,2013-02-01 23:45:00,
2013-02-01 17:48:00,66.7,35.1,30.16,South,175,5.0,7.0,31,0.00,,,0.00,VWS V14.01,2013-02-01 23:48:00,
2013-02-01 17:50:00,62.7,34.7,30.16,SE,139,0.0,1.0,35,0.00,,,0.00,VWS V14.01,2013-02-01 23:50:00,
2013-02-01 17:53:00,66.5,35.0,30.16,SSE,148,8.0,9.0,31,0.00,,,0.00,VWS V14.01,2013-02-01 23:53:00,
2013-02-01 17:55:00,62.2,34.9,30.16,SE,139,0.0,1.0,36,0.00,,,0.00,VWS V14.01,2013-02-01 23:55:00,
2013-02-01 17:58:00,66.3,35.6,30.16,SSE,164,4.0,8.0,32,0.00,,,0.00,VWS V14.01,2013-02-01 23:58:00,
2013-02-01 18:00:00,61.7,35.2,30.16,SE,139,0.0,1.0,37,0.00,,,0.00,VWS V14.01,2013-02-02 00:00:00,
2013-02-01 18:03:00,65.8,35.2,30.15,SSE,156,3.0,7.0,32,0.00,,,0.00,VWS V14.01,2013-02-02 00:03:00,
2013-02-01 18:05:00,61.2,35.4,30.17,SE,139,0.0,1.0,38,0.00,,,0.00,VWS V14.01,2013-02-02 00:05:00,
2013-02-01 18:08:00,65.5,35.7,30.15,South,170,4.0,8.0,33,0.00,,,0.00,VWS V14.01,2013-02-02 00:08:00,
2013-02-01 18:10:00,60.8,35.1,30.17,SE,139,0.0,1.0,38,0.00,,,0.00,VWS V14.01,2013-02-02 00:10:00,
2013-02-01 18:13:00,65.3,35.5,30.16,South,170,4.0,6.0,33,0.00,,,0.00,VWS V14.01,2013-02-02 00:13:00,
2013-02-01 18:15:00,60.3,35.3,30.17,SE,139,0.0,0.0,39,0.00,,,0.00,VWS V14.01,2013-02-02 00:15:00,
2013-02-01 18:18:00,65.1,35.3,30.16,SSE,150,2.0,7.0,33,0.00,,,0.00,VWS V14.01,2013-02-02 00:18:00,
2013-02-01 18:20:00,59.8,34.8,30.17,SE,139,0.0,0.0,39,0.00,,,0.00,VWS V14.01,2013-02-02 00:20:00,
2013-02-01 18:23:00,64.7,35.0,30.16,SSE,158,2.0,4.0,33,0.00,,,0.00,VWS V14.01,2013-02-02 00:23:00,
2013-02-01 18:25:00,59.6,35.3,30.17,SE,139,0.0,0.0,40,0.00,,,0.00,VWS V14.01,2013-02-02 00:25:00,
2013-02-01 18:28:00,64.5,35.5,30.16,SE,133,1.0,3.0,34,0.00,,,0.00,VWS V14.01,2013-02-02 00:28:00,
2013-02-01 18:30:00,59.1,34.8,30.17,SE,139,0.0,0.0,40,0.00,,,0.00,VWS V14.01,2013-02-02 00:30:00,
2013-02-01 18:33:00,64.1,35.2,30.16,SE,136,1.0,3.0,34,0.00,,,0.00,VWS V14.01,2013-02-02 00:33:00,
2013-02-01 18:35:00,58.8,35.2,30.17,SE,139,0.0,1.0,41,0.00,,,0.00,VWS V14.01,2013-02-02 00:35:00,
2013-02-01 18:38:00,63.6,34.7,30.16,SE,136,1.0,1.0,34,0.00,,,0.00,VWS V14.01,2013-02-02 00:38:00,
2013-02-01 18:40:00,58.7,35.1,30.17,SE,139,0.0,1.0,41,0.00,,,0.00,VWS V14.01,2013-02-02 00:40:00,
2013-02-01 18:43:00,63.3,35.2,30.16,SE,139,2.0,3.0,35,0.00,,,0.00,VWS V14.01,2013-02-02 00:43:00,
2013-02-01 18:45:00,58.6,35.6,30.17,SE,139,0.0,1.0,42,0.00,,,0.00,VWS V14.01,2013-02-02 00:45:00,
2013-02-01 18:48:00,62.9,34.8,30.16,SE,139,0.0,1.0,35,0.00,,,0.00,VWS V14.01,2013-02-02 00:48:00,
2013-02-01 18:50:00,58.6,35.6,30.17,SE,139,0.0,1.0,42,0.00,,,0.00,VWS V14.01,2013-02-02 00:50:00,
2013-02-01 18:53:00,62.4,35.1,30.16,SE,139,0.0,1.0,36,0.00,,,0.00,VWS V14.01,2013-02-02 00:53:00,
2013-02-01 18:55:00,58.6,35.6,30.18,East,95,0.0,1.0,42,0.00,,,0.00,VWS V14.01,2013-02-02 00:55:00,
2013-02-01 18:58:00,62.0,34.8,30.16,SE,139,0.0,1.0,36,0.00,,,0.00,VWS V14.01,2013-02-02 00:58:00,
2013-02-01 19:00:00,58.4,35.4,30.17,East,97,1.0,1.0,42,0.00,,,0.00,VWS V14.01,2013-02-02 01:00:00,
2013-02-01 19:03:00,61.4,34.9,30.17,SE,139,0.0,1.0,37,0.00,,,0.00,VWS V14.01,2013-02-02 01:03:00,
2013-02-01 19:05:00,58.2,35.8,30.18,East,97,0.0,1.0,43,0.00,,,0.00,VWS V14.01,2013-02-02 01:05:00,
2013-02-01 19:08:00,60.9,35.1,30.17,SE,139,0.0,1.0,38,0.00,,,0.00,VWS V14.01,2013-02-02 01:08:00,
2013-02-01 19:10:00,58.0,35.7,30.18,East,95,0.0,0.0,43,0.00,,,0.00,VWS V14.01,2013-02-02 01:10:00,
2013-02-01 19:13:00,60.5,34.8,30.17,SE,139,0.0,0.0,38,0.00,,,0.00,VWS V14.01,2013-02-02 01:13:00,
2013-02-01 19:15:00,57.9,36.1,30.18,East,98,0.0,0.0,44,0.00,,,0.00,VWS V14.01,2013-02-02 01:15:00,
2013-02-01 19:18:00,60.0,35.0,30.17,SE,139,0.0,0.0,39,0.00,,,0.00,VWS V14.01,2013-02-02 01:18:00,
2013-02-01 19:20:00,57.7,36.0,30.18,East,97,0.0,0.0,44,0.00,,,0.00,VWS V14.01,2013-02-02 01:20:00,
2013-02-01 19:23:00,59.7,35.4,30.17,SE,139,0.0,0.0,40,0.00,,,0.00,VWS V14.01,2013-02-02 01:23:00,
2013-02-01 19:25:00,57.5,35.8,30.18,ENE,75,0.0,0.0,44,0.00,,,0.00,VWS V14.01,2013-02-02 01:25:00,
2013-02-01 19:28:00,59.4,35.1,30.17,SE,139,0.0,0.0,40,0.00,,,0.00,VWS V14.01,2013-02-02 01:28:00,
2013-02-01 19:30:00,57.3,36.2,30.18,ENE,76,0.0,0.0,45,0.00,,,0.00,VWS V14.01,2013-02-02 01:30:00,
2013-02-01 19:33:00,58.9,35.3,30.17,SE,139,0.0,0.0,41,0.00,,,0.00,VWS V14.01,2013-02-02 01:33:00,
2013-02-01 19:35:00,57.0,35.9,30.19,SE,142,4.0,5.0,45,0.00,,,0.00,VWS V14.01,2013-02-02 01:35:00,
2013-02-01 19:38:00,58.7,35.1,30.17,SE,139,0.0,1.0,41,0.00,,,0.00,VWS V14.01,2013-02-02 01:38:00,
2013-02-01 19:40:00,57.1,36.5,30.19,SE,146,6.0,7.0,46,0.00,,,0.00,VWS V14.01,2013-02-02 01:40:00,
2013-02-01 19:43:00,58.6,35.6,30.17,SE,139,0.0,1.0,42,0.00,,,0.00,VWS V14.01,2013-02-02 01:43:00,
2013-02-01 19:45:00,58.1,36.3,30.19,ESE,115,8.0,10.0,44,0.00,,,0.00,VWS V14.01,2013-02-02 01:45:00,
2013-02-01 19:48:00,58.6,35.6,30.17,SE,139,0.0,1.0,42,0.00,,,0.00,VWS V14.01,2013-02-02 01:48:00,
2013-02-01 19:50:00,58.9,35.9,30.19,SE,126,7.0,14.0,42,0.00,,,0.00,VWS V14.01,2013-02-02 01:50:00,
2013-02-01 19:53:00,58.6,35.6,30.18,East,94,0.0,1.0,42,0.00,,,0.00,VWS V14.01,2013-02-02 01:53:00,
2013-02-01 19:55:00,59.3,35.6,30.19,SSW,198,4.0,13.0,41,0.00,,,0.00,VWS V14.01,2013-02-02 01:55:00,
2013-02-01 19:58:00,58.6,35.6,30.18,East,97,0.0,1.0,42,0.00,,,0.00,VWS V14.01,2013-02-02 01:58:00,
2013-02-01 20:00:00,59.3,35.6,30.20,SE,132,10.0,13.0,41,0.00,,,0.00,VWS V14.01,2013-02-02 02:00:00,
2013-02-01 20:03:00,58.3,35.9,30.18,East,97,0.0,1.0,43,0.00,,,0.00,VWS V14.01,2013-02-02 02:03:00,
2013-02-01 20:05:00,59.4,35.1,30.20,SE,140,10.0,13.0,40,0.00,,,0.00,VWS V14.01,2013-02-02 02:05:00,
2013-02-01 20:08:00,58.0,35.7,30.18,East,95,0.0,0.0,43,0.00,,,0.00,VWS V14.01,2013-02-02 02:08:00,
2013-02-01 20:10:00,59.3,35.0,30.20,SE,135,5.0,11.0,40,0.00,,,0.00,VWS V14.01,2013-02-02 02:10:00,
2013-02-01 20:13:00,57.9,35.6,30.18,East,97,0.0,0.0,43,0.00,,,0.00,VWS V14.01,2013-02-02 02:13:00,
2013-02-01 20:15:00,59.0,34.7,30.20,SE,133,6.0,10.0,40,0.00,,,0.00,VWS V14.01,2013-02-02 02:15:00,
2013-02-01 20:18:00,57.8,36.0,30.18,East,97,0.0,0.0,44,0.00,,,0.00,VWS V14.01,2013-02-02 02:18:00,
2013-02-01 20:20:00,58.8,35.2,30.20,SSE,168,4.0,12.0,41,0.00,,,0.00,VWS V14.01,2013-02-02 02:20:00,
2013-02-01 20:23:00,57.6,35.9,30.18,East,97,0.0,0.0,44,0.00,,,0.00,VWS V14.01,2013-02-02 02:23:00,
2013-02-01 20:25:00,58.4,34.8,30.20,SE,125,5.0,8.0,41,0.00,,,0.00,VWS V14.01,2013-02-02 02:25:00,
2013-02-01 20:28:00,57.4,36.2,30.18,ENE,74,0.0,0.0,45,0.00,,,0.00,VWS V14.01,2013-02-02 02:28:00,
2013-02-01 20:30:00,58.1,35.2,30.20,SE,129,7.0,9.0,42,0.00,,,0.00,VWS V14.01,2013-02-02 02:30:00,
2013-02-01 20:33:00,57.0,35.9,30.19,SE,127,1.0,3.0,45,0.00,,,0.00,VWS V14.01,2013-02-02 02:33:00,
2013-02-01 20:35:00,57.7,34.8,30.20,SE,131,5.0,8.0,42,0.00,,,0.00,VWS V14.01,2013-02-02 02:35:00,
2013-02-01 20:38:00,57.0,36.4,30.19,SE,132,4.0,6.0,46,0.00,,,0.00,VWS V14.01,2013-02-02 02:38:00,
2013-02-01 20:40:00,57.4,35.1,30.20,SSE,156,5.0,9.0,43,0.00,,,0.00,VWS V14.01,2013-02-02 02:40:00,
2013-02-01 20:43:00,57.7,36.5,30.19,SSE,147,6.0,8.0,45,0.00,,,0.00,VWS V14.01,2013-02-02 02:43:00,
2013-02-01 20:45:00,57.0,34.7,30.20,SE,132,5.0,9.0,43,0.00,,,0.00,VWS V14.01,2013-02-02 02:45:00,
2013-02-01 20:48:00,58.6,36.2,30.19,SE,140,7.0,12.0,43,0.00,,,0.00,VWS V14.01,2013-02-02 02:48:00,
2013-02-01 20:50:00,56.4,34.8,30.20,SE,132,4.0,7.0,44,0.00,,,0.00,VWS V14.01,2013-02-02 02:50:00,
2013-02-01 20:53:00,59.2,36.1,30.20,SSE,161,6.0,13.0,42,0.00,,,0.00,VWS V14.01,2013-02-02 02:53:00,
2013-02-01 20:55:00,56.2,35.2,30.20,SE,140,4.0,7.0,45,0.00,,,0.00,VWS V14.01,2013-02-02 02:55:00,
2013-02-01 20:58:00,59.3,35.6,30.20,SSE,162,8.0,13.0,41,0.00,,,0.00,VWS V14.01,2013-02-02 02:58:00,
2013-02-01 21:00:00,56.0,35.0,30.20,SE,146,6.0,8.0,45,0.00,,,0.00,VWS V14.01,2013-02-02 03:00:00,
2013-02-01 21:03:00,59.4,35.1,30.20,SE,140,9.0,13.0,40,0.00,,,0.00,VWS V14.01,2013-02-02 03:03:00,
2013-02-01 21:05:00,56.0,35.0,30.20,SE,135,5.0,7.0,45,0.00,,,0.00,VWS V14.01,2013-02-02 03:05:00,
2013-02-01 21:08:00,59.3,35.0,30.20,SSE,154,5.0,10.0,40,0.00,,,0.00,VWS V14.01,2013-02-02 03:08:00,
2013-02-01 21:10:00,55.8,35.3,30.20,ESE,102,6.0,7.0,46,0.00,,,0.00,VWS V14.01,2013-02-02 03:10:00,
2013-02-01 21:13:00,59.1,34.8,30.20,SE,130,7.0,10.0,40,0.00,,,0.00,VWS V14.01,2013-02-02 03:13:00,
2013-02-01 21:15:00,55.7,35.3,30.20,SE,132,4.0,10.0,46,0.00,,,0.00,VWS V14.01,2013-02-02 03:15:00,
2013-02-01 21:18:00,58.8,35.2,30.20,SSE,150,8.0,12.0,41,0.00,,,0.00,VWS V14.01,2013-02-02 03:18:00,
2013-02-01 21:20:00,55.5,35.1,30.20,SE,129,8.0,10.0,46,0.00,,,0.00,VWS V14.01,2013-02-02 03:20:00,
2013-02-01 21:23:00,58.6,35.0,30.20,SE,143,5.0,8.0,41,0.00,,,0.00,VWS V14.01,2013-02-02 03:23:00,
2013-02-01 21:25:00,55.6,35.2,30.20,ESE,116,4.0,9.0,46,0.00,,,0.00,VWS V14.01,2013-02-02 03:25:00,
2013-02-01 21:28:00,58.3,34.7,30.20,SE,133,5.0,9.0,41,0.00,,,0.00,VWS V14.01,2013-02-02 03:28:00,
2013-02-01 21:30:00,55.4,35.5,30.20,East,94,3.0,7.0,47,0.00,,,0.00,VWS V14.01,2013-02-02 03:30:00,
2013-02-01 21:32:00,57.9,35.0,30.20,SE,143,6.0,8.0,42,0.00,,,0.00,VWS V14.01,2013-02-02 03:32:00,
2013-02-01 21:35:00,55.2,35.9,30.20,SE,133,5.0,8.0,48,0.00,,,0.00,VWS V14.01,2013-02-02 03:35:00,
2013-02-01 21:37:00,57.6,35.3,30.20,SE,135,4.0,9.0,43,0.00,,,0.00,VWS V14.01,2013-02-02 03:37:00,
2013-02-01 21:40:00,55.1,35.8,30.20,SE,140,5.0,9.0,48,0.00,,,0.00,VWS V14.01,2013-02-02 03:40:00,
2013-02-01 21:42:00,57.2,34.9,30.20,ESE,116,5.0,9.0,43,0.00,,,0.00,VWS V14.01,2013-02-02 03:42:00,
2013-02-01 21:45:00,55.0,36.2,30.20,SE,136,4.0,10.0,49,0.00,,,0.00,VWS V14.01,2013-02-02 03:45:00,
2013-02-01 21:47:00,56.7,35.0,30.20,SE,146,4.0,6.0,44,0.00,,,0.00,VWS V14.01,2013-02-02 03:47:00,
2013-02-01 21:50:00,54.9,36.1,30.20,SSE,160,4.0,8.0,49,0.00,,,0.00,VWS V14.01,2013-02-02 03:50:00,
2013-02-01 21:52:00,56.3,34.7,30.20,SE,130,5.0,7.0,44,0.00,,,0.00,VWS V14.01,2013-02-02 03:52:00,
2013-02-01 21:55:00,54.9,36.6,30.20,SSE,153,6.0,9.0,50,0.00,,,0.00,VWS V14.01,2013-02-02 03:55:00,
2013-02-01 21:57:00,56.1,35.1,30.20,SE,137,5.0,7.0,45,0.00,,,0.00,VWS V14.01,2013-02-02 03:57:00,
2013-02-01 22:00:00,54.9,37.1,30.20,SSE,168,6.0,9.0,51,0.00,,,0.00,VWS V14.01,2013-02-02 04:00:00,
2013-02-01 22:02:00,56.0,35.0,30.20,SE,144,4.0,7.0,45,0.00,,,0.00,VWS V14.01,2013-02-02 04:02:00,
2013-02-01 22:05:00,54.8,37.0,30.20,SE,133,5.0,6.0,51,0.00,,,0.00,VWS V14.01,2013-02-02 04:05:00,
2013-02-01 22:07:00,55.9,34.9,30.20,SE,136,5.0,7.0,45,0.00,,,0.00,VWS V14.01,2013-02-02 04:07:00,
2013-02-01 22:10:00,54.7,37.4,30.20,SSE,160,3.0,9.0,52,0.00,,,0.00,VWS V14.01,2013-02-02 04:10:00,
2013-02-01 22:12:00,55.6,35.2,30.20,SE,132,8.0,10.0,46,0.00,,,0.00,VWS V14.01,2013-02-02 04:12:00,
2013-02-01 22:15:00,54.6,37.3,30.20,SE,131,3.0,6.0,52,0.00,,,0.00,VWS V14.01,2013-02-02 04:15:00,
2013-02-01 22:17:00,55.7,35.3,30.20,ESE,123,4.0,7.0,46,0.00,,,0.00,VWS V14.01,2013-02-02 04:17:00,
2013-02-01 22:20:00,54.5,37.7,30.20,SSE,150,3.0,7.0,53,0.00,,,0.00,VWS V14.01,2013-02-02 04:20:00,
2013-02-01 22:22:00,55.6,35.2,30.20,SE,129,8.0,9.0,46,0.00,,,0.00,VWS V14.01,2013-02-02 04:22:00,
2013-02-01 22:25:00,54.4,37.6,30.20,SE,137,3.0,9.0,53,0.00,,,0.00,VWS V14.01,2013-02-02 04:25:00,
2013-02-01 22:27:00,55.4,35.5,30.20,SE,127,5.0,6.0,47,0.00,,,0.00,VWS V14.01,2013-02-02 04:27:00,
2013-02-01 22:30:00,54.3,38.0,30.20,SE,142,3.0,6.0,54,0.00,,,0.00,VWS V14.01,2013-02-02 04:30:00,
2013-02-01 22:32:00,55.3,35.4,30.20,SE,133,5.0,8.0,47,0.00,,,0.00,VWS V14.01,2013-02-02 04:32:00,
2013-02-01 22:35:00,54.0,37.8,30.20,SE,125,2.0,5.0,54,0.00,,,0.00,VWS V14.01,2013-02-02 04:35:00,
2013-02-01 22:37:00,55.2,35.9,30.20,SE,143,6.0,9.0,48,0.00,,,0.00,VWS V14.01,2013-02-02 04:37:00,
2013-02-01 22:40:00,53.9,38.1,30.20,ESE,107,2.0,5.0,55,0.00,,,0.00,VWS V14.01,2013-02-02 04:40:00,
2013-02-01 22:42:00,55.2,35.9,30.20,SSE,150,7.0,10.0,48,0.00,,,0.00,VWS V14.01,2013-02-02 04:42:00,
2013-02-01 22:45:00,53.7,37.9,30.20,ESE,118,2.0,4.0,55,0.00,,,0.00,VWS V14.01,2013-02-02 04:45:00,
2013-02-01 22:47:00,54.9,36.1,30.20,ESE,123,4.0,8.0,49,0.00,,,0.00,VWS V14.01,2013-02-02 04:47:00,
2013-02-01 22:50:00,53.3,38.5,30.20,SE,129,4.0,6.0,57,0.00,,,0.00,VWS V14.01,2013-02-02 04:50:00,
2013-02-01 22:52:00,54.9,36.6,30.20,SE,146,6.0,9.0,50,0.00,,,0.00,VWS V14.01,2013-02-02 04:52:00,
2013-02-01 22:55:00,53.2,38.4,30.19,SE,129,2.0,5.0,57,0.00,,,0.00,VWS V14.01,2013-02-02 04:55:00,
2013-02-01 22:57:00,54.9,36.6,30.20,SSE,163,7.0,9.0,50,0.00,,,0.00,VWS V14.01,2013-02-02 04:57:00,
2013-02-01 23:00:00,54.9,37.1,30.20,SE,144,5.0,9.0,51,0.00,,,0.00,VWS V14.01,2013-02-02 05:00:00,
2013-02-01 23:05:00,54.8,37.0,30.20,SE,146,6.0,9.0,51,0.00,,,0.00,VWS V14.01,2013-02-02 05:05:00,
2013-02-01 23:10:00,54.6,37.3,30.20,South,182,6.0,6.0,52,0.00,,,0.00,VWS V14.01,2013-02-02 05:10:00,
2013-02-01 23:15:00,54.6,37.3,30.20,SE,129,5.0,6.0,52,0.00,,,0.00,VWS V14.01,2013-02-02 05:15:00,
2013-02-01 23:20:00,54.5,37.7,30.20,SE,129,3.0,3.0,53,0.00,,,0.00,VWS V14.01,2013-02-02 05:20:00,
2013-02-01 23:25:00,54.4,37.6,30.20,ESE,112,2.0,3.0,53,0.00,,,0.00,VWS V14.01,2013-02-02 05:25:00,
2013-02-01 23:30:00,54.3,38.0,30.20,SE,135,3.0,3.0,54,0.00,,,0.00,VWS V14.01,2013-02-02 05:30:00,
2013-02-01 23:35:00,54.0,37.8,30.21,ESE,115,3.0,3.0,54,0.00,,,0.00,VWS V14.01,2013-02-02 05:35:00,
2013-02-01 23:40:00,53.9,38.1,30.20,ESE,120,3.0,3.0,55,0.00,,,0.00,VWS V14.01,2013-02-02 05:40:00,
2013-02-01 23:45:00,53.6,37.8,30.20,ESE,118,2.0,2.0,55,0.00,,,0.00,VWS V14.01,2013-02-02 05:45:00,
2013-02-01 23:50:00,53.3,38.5,30.20,SE,130,4.0,5.0,57,0.00,,,0.00,VWS V14.01,2013-02-02 05:50:00,
2013-02-01 23:55:00,53.2,38.4,30.19,SE,136,2.0,2.0,57,0.00,,,0.00,VWS V14.01,2013-02-02 05:55:00,